• Join FlightAware (Why Join?)
  • Login
  • US Flag 
12:49AM EDT


 

Airport Tracker/Info


-or-


 

Live Flight TrackerFlight Track Log ✈ N680AN ✈ 02-May-2013 ✈ KDFW - KMCO

Flight Track Log - Related Links

Times and Time Zones

All times are in EDT time to prevent confusion due to time zone crossing. See the N680AN flight status page for this flight to view local times or setup timezone preferences in your user account.

Time Position Orientation Groundspeed Altitude Reporting Facility
EDT Latitude Longitude Course Direction KTS MPH feet Rate Location/Type
07:25AM 32.9000 -97.0333 68° East 155 178 1,300  Level Dallas / Fort Worth TRACON
07:26AM 32.9667 -97.0167 12° North 227 261 4,000 2,640 Climbing Dallas / Fort Worth TRACON
07:27AM 32.7272 -97.0196 175° South  Level FlightAware Approximate
07:28AM 32.6833 -96.8906 90° East  Level FlightAware Approximate
07:28AM 33.0161 -96.9353 54° Northeast 280 322 8,800  Level Fort Worth Center
07:29AM 32.7001 -96.7499 68° East  Level FlightAware Approximate
07:29AM 32.9992 -96.8436 102° East 232 267 10,000  Level Fort Worth Center
07:30AM 32.7449 -96.6155 68° East  Level FlightAware Approximate
07:30AM 32.9650 -96.7153 108° East 314 361 11,500  Level Fort Worth Center
07:31AM 32.9331 -96.5942 107° East 375 432 14,600 2,820 Climbing Fort Worth Center
07:32AM 32.9133 -96.4631 100° East 392 451 17,200 2,580 Climbing Fort Worth Center
07:33AM 32.8997 -96.3297 97° East 403 464 19,800 2,400 Climbing Fort Worth Center
07:34AM 32.8858 -96.1939 97° East 413 475 22,000 1,920 Climbing Fort Worth Center
07:35AM 32.8697 -96.0481 97° East 435 501 23,700 1,620 Climbing Fort Worth Center
07:36AM 32.8536 -95.8975 97° East 449 517 25,300 1,740 Climbing Fort Worth Center
07:37AM 32.8347 -95.7419 98° East 469 540 27,200 1,680 Climbing Fort Worth Center
07:38AM 32.8161 -95.5942 98° East 488 562 28,700 1,680 Climbing Fort Worth Center
07:39AM 32.7969 -95.4364 98° East 488 562 30,600 1,860 Climbing Fort Worth Center
07:40AM 32.7797 -95.2786 97° East 488 562 32,500 1,200 Climbing Fort Worth Center
07:41AM 32.7625 -95.1208 97° East 483 556 33,000 240 Climbing Fort Worth Center
07:42AM 32.7428 -94.9583 98° East 489 563 33,000  Level Fort Worth Center
07:43AM 32.7228 -94.7983 98° East 489 563 33,000  Level Fort Worth Center
07:44AM 32.7025 -94.6361 98° East 489 563 33,000  Level Fort Worth Center
07:45AM 32.6822 -94.4764 99° East 489 563 33,000  Level Fort Worth Center
07:46AM 32.6658 -94.3164 97° East 484 557 33,000  Level Fort Worth Center
07:47AM 32.6453 -94.1592 99° East 484 557 33,000  Level Fort Worth Center
07:48AM 32.6264 -93.9994 98° East 484 557 33,000  Level Fort Worth Center
07:49AM 32.6053 -93.8450 99° East 479 551 33,000  Level Fort Worth Center
07:50AM 32.5861 -93.6856 98° East 484 557 33,000  Level Fort Worth Center
07:51AM 32.5667 -93.5286 98° East 484 557 33,000  Level Fort Worth Center
07:52AM 32.5472 -93.3692 98° East 484 557 33,000  Level Fort Worth Center
07:53AM 32.5253 -93.2150 100° East 484 557 33,000  Level Fort Worth Center
07:54AM 32.5056 -93.0583 98° East 484 557 33,000  Level Fort Worth Center
07:55AM 32.4853 -92.9017 99° East 484 557 33,000  Level Fort Worth Center
07:56AM 32.4672 -92.7475 98° East 484 557 33,000  Level Fort Worth Center
07:57AM 32.4428 -92.5961 101° East 479 551 33,000  Level Fort Worth Center
07:58AM 32.4236 -92.4300 98° East 479 551 33,000  Level Fort Worth Center
07:59AM 32.3989 -92.2789 101° East 467 537 33,000  Level Fort Worth Center
08:01AM 32.3608 -92.0108 99° East 470 541 33,000  Level Houston Center
08:02AM 32.3331 -91.8275 100° East 472 543 33,000  Level Houston Center
08:03AM 32.3117 -91.6761 99° East 468 539 33,000  Level Houston Center
08:04AM 32.2892 -91.5239 100° East 469 540 33,000  Level Houston Center
08:05AM 32.2669 -91.3694 100° East 467 537 33,000 480 Level Memphis Center
08:06AM 32.2431 -91.2169 100° East 467 537 34,000 780 Climbing Memphis Center
08:07AM 32.2192 -91.0619 100° East 472 543 34,600 480 Climbing Memphis Center
08:08AM 32.1969 -90.9072 100° East 472 543 35,000 180 Climbing Memphis Center
08:09AM 32.1725 -90.7575 101° East 467 537 35,000  Level Memphis Center
08:10AM 32.1497 -90.6053 100° East 467 537 35,100 840 Climbing Memphis Center
08:11AM 32.1250 -90.4408 100° East 467 537 36,700 1,380 Climbing Memphis Center
08:12AM 32.1019 -90.2886 100° East 467 537 37,900 1,140 Climbing Memphis Center
08:13AM 32.0789 -90.1367 100° East 467 537 39,000 540 Climbing Memphis Center
08:14AM 32.0533 -89.9872 101° East 467 537 39,000  Level Memphis Center
08:15AM 32.0300 -89.8403 101° East 462 532 39,000  Level Memphis Center
08:16AM 32.0083 -89.6933 100° East 462 532 39,000  Level Memphis Center
08:17AM 31.9825 -89.5442 102° East 462 532 39,000  Level Memphis Center
08:18AM 31.9583 -89.3975 101° East 467 537 39,000  Level Memphis Center
08:19AM 31.9319 -89.2461 102° East 467 537 39,000  Level Memphis Center
08:20AM 31.9100 -89.1214 102° East 460 529 39,000  Level Memphis Center
08:21AM 31.8856 -88.9703 101° East 460 529 39,000  Level Memphis Center
08:22AM 31.8608 -88.8214 101° East 460 529 39,000  Level Memphis Center
08:23AM 31.8358 -88.6703 101° East 465 535 39,000  Level Memphis Center
08:25AM 31.7694 -88.2914 102° East 461 531 39,000  Level Atlanta Center
08:26AM 31.7453 -88.1414 101° East 461 531 39,000  Level Atlanta Center
08:27AM 31.7189 -87.9939 102° East 461 531 39,000  Level Atlanta Center
08:28AM 31.6942 -87.8464 101° East 456 525 39,000  Level Atlanta Center
08:29AM 31.6675 -87.6989 102° East 456 525 39,000  Level Atlanta Center
08:30AM 31.6403 -87.5514 102° East 456 525 39,000  Level Atlanta Center
08:31AM 31.6153 -87.4064 101° East 456 525 39,000  Level Atlanta Center
08:32AM 31.5878 -87.2592 102° East 451 519 39,000  Level Atlanta Center
08:35AM 31.5147 -86.8889 103° East 470 541 39,000  Level Jacksonville Center
08:36AM 31.4858 -86.7442 103° East 460 529 39,000  Level Jacksonville Center
08:37AM 31.4589 -86.5967 102° East 460 529 39,000  Level Jacksonville Center
08:38AM 31.4319 -86.4497 102° East 460 529 39,000  Level Jacksonville Center
08:39AM 31.4025 -86.3000 103° East 455 524 39,000  Level Jacksonville Center
08:40AM 31.3731 -86.1556 103° East 460 529 39,000  Level Jacksonville Center
08:41AM 31.3433 -86.0086 103° East 460 529 39,000  Level Jacksonville Center
08:42AM 31.3156 -85.8569 102° East 460 529 39,000  Level Jacksonville Center
08:43AM 31.2914 -85.7225 102° East 460 529 39,000  Level Jacksonville Center
08:44AM 31.2614 -85.5708 103° East 467 537 39,000 -60 Level Jacksonville Center
08:45AM 31.2331 -85.4242 103° East 467 537 38,900 -660 Descending Jacksonville Center
08:46AM 31.2025 -85.2728 103° East 472 543 37,700 -1,380 Descending Jacksonville Center
08:47AM 31.1678 -85.1142 104° East 467 537 36,200 -1,380 Descending Jacksonville Center
08:48AM 31.1011 -84.9817 120° Southeast 461 531 35,000 -600 Descending Jacksonville Center
08:49AM 31.0425 -84.8614 120° Southeast 461 531 35,000  Level Jacksonville Center
08:50AM 31.0117 -84.7008 103° East 452 520 35,000  Level Jacksonville Center
08:51AM 30.9867 -84.5453 101° East 463 533 35,000  Level Jacksonville Center
08:52AM 30.9633 -84.3994 101° East 469 540 35,000  Level Jacksonville Center
08:53AM 30.9378 -84.2464 101° East 469 540 35,000  Level Jacksonville Center
08:54AM 30.9122 -84.0961 101° East 469 540 35,000  Level Jacksonville Center
08:55AM 30.8886 -83.9506 101° East 469 540 35,000 -120 Level Jacksonville Center
08:56AM 30.8647 -83.7978 100° East 469 540 34,800 -840 Descending Jacksonville Center
08:57AM 30.8697 -83.6453 88° East 469 540 33,400 -1,440 Descending Jacksonville Center
08:58AM 30.8769 -83.4906 87° East 464 534 32,000 -1,200 Descending Jacksonville Center
08:59AM 30.8839 -83.3356 87° East 464 534 31,000 -540 Descending Jacksonville Center
09:00AM 30.8569 -83.1925 102° East 464 534 31,000 -60 Level Jacksonville Center
09:01AM 30.7633 -83.1053 141° Southeast 401 461 30,900 -1,080 Descending Jacksonville Center
09:02AM 30.6506 -83.0397 153° Southeast 411 473 28,900 -1,980 Descending Jacksonville Center
09:03AM 30.5506 -82.9650 147° Southeast 424 488 27,000 -1,860 Descending Jacksonville Center
09:04AM 30.4564 -82.8806 142° Southeast 429 494 25,200 -1,020 Descending Jacksonville Center
09:05AM 30.3689 -82.8011 142° Southeast 423 487 25,000 -120 Descending Jacksonville Center
09:06AM 30.2811 -82.7217 142° Southeast 418 481 25,000  Level Jacksonville Center
09:07AM 30.1889 -82.6428 144° Southeast 418 481 25,000  Level Jacksonville Center
09:08AM 30.0969 -82.5636 143° Southeast 418 481 25,000  Level Jacksonville Center
09:09AM 30.0069 -82.4800 141° Southeast 418 481 25,000  Level Jacksonville Center
09:10AM 29.9064 -82.4181 152° Southeast 418 481 25,000  Level Jacksonville Center
09:11AM 29.8019 -82.3683 158° South 413 475 25,000 -60 Level Jacksonville Center
09:12AM 29.6953 -82.3164 157° South 413 475 24,900 -540 Descending Jacksonville Center
09:13AM 29.5906 -82.2669 158° South 413 475 24,000 -1,200 Descending Jacksonville Center
09:14AM 29.4881 -82.2197 158° South 413 475 22,600 -1,800 Descending Jacksonville Center
09:15AM 29.3875 -82.1703 157° South 408 470 20,400 -2,160 Descending Jacksonville Center
09:16AM 29.2872 -82.1236 158° South 401 461 18,300 -2,040 Descending Jacksonville Center
09:17AM 29.1931 -82.0767 156° South 390 449 16,400 -1,980 Descending Jacksonville Center
09:18AM 29.0986 -82.0300 157° South 378 435 14,400 -2,040 Descending Jacksonville Center
09:19AM 29.0067 -81.9903 159° South 365 420 12,400 -1,560 Descending Jacksonville Center
09:20AM 28.9292 -81.9508 156° South 355 409 11,300 -720 Descending Jacksonville Center
09:21AM 28.8661 -81.9039 147° Southeast 326 375 11,000 -540 Descending Jacksonville Center
09:21AM 28.8500 -81.8667 116° Southeast 284 327 10,600 -1,320 Descending Orlando TRACON
09:22AM 28.8333 -81.7833 103° East 280 322 9,200 -840 Descending Orlando TRACON
09:23AM 28.8333 -81.7000 90° East 249 287 9,000 -180 Descending Orlando TRACON
09:24AM 28.8167 -81.6167 103° East 239 275 8,900 -300 Descending Orlando TRACON
09:25AM 28.8167 -81.5500 90° East 243 280 8,500 -900 Descending Orlando TRACON
09:26AM 28.8167 -81.4667 90° East 236 272 7,200 -1,140 Descending Orlando TRACON
09:27AM 28.8000 -81.4000 106° East 236 272 6,300 -660 Descending Orlando TRACON
09:28AM 28.7667 -81.3500 127° Southeast 221 254 5,900 -660 Descending Orlando TRACON
09:29AM 28.7000 -81.3333 168° South 188 216 5,000 -960 Descending Orlando TRACON
09:30AM 28.6500 -81.3333 180° South 176 203 4,000 -900 Descending Orlando TRACON
09:31AM 28.6167 -81.3333 180° South 169 194 3,200 -840 Descending Orlando TRACON